sensor_id;sensor_type;location;lat;lon;timestamp;pressure;altitude;pressure_sealevel;temperature;humidity
64841;BME280;51307;52.162;7.560;2023-05-03T00:01:06;102372.16;;;7.82;49.04
64841;BME280;51307;52.162;7.560;2023-05-03T00:03:32;102369.50;;;7.82;49.35
64841;BME280;51307;52.162;7.560;2023-05-03T00:08:36;102378.66;;;7.78;49.51
64841;BME280;51307;52.162;7.560;2023-05-03T00:11:01;102376.50;;;7.70;49.43
64841;BME280;51307;52.162;7.560;2023-05-03T00:13:27;102371.84;;;7.86;49.29
64841;BME280;51307;52.162;7.560;2023-05-03T00:15:52;102381.59;;;7.60;49.63
64841;BME280;51307;52.162;7.560;2023-05-03T00:18:18;102383.09;;;7.64;49.60
64841;BME280;51307;52.162;7.560;2023-05-03T00:20:43;102387.22;;;7.55;49.71
64841;BME280;51307;52.162;7.560;2023-05-03T00:23:08;102382.09;;;7.52;49.72
64841;BME280;51307;52.162;7.560;2023-05-03T00:25:34;102375.88;;;7.39;49.82
64841;BME280;51307;52.162;7.560;2023-05-03T00:28:00;102377.13;;;7.33;50.06
64841;BME280;51307;52.162;7.560;2023-05-03T00:30:25;102383.53;;;7.44;49.86
64841;BME280;51307;52.162;7.560;2023-05-03T00:32:50;102370.34;;;7.42;49.85
64841;BME280;51307;52.162;7.560;2023-05-03T00:35:16;102381.31;;;7.37;50.01
64841;BME280;51307;52.162;7.560;2023-05-03T00:37:41;102379.09;;;7.44;49.80
64841;BME280;51307;52.162;7.560;2023-05-03T00:40:08;102382.34;;;7.35;50.04
64841;BME280;51307;52.162;7.560;2023-05-03T00:42:35;102385.59;;;7.53;49.84
64841;BME280;51307;52.162;7.560;2023-05-03T00:45:03;102386.22;;;7.44;50.25
64841;BME280;51307;52.162;7.560;2023-05-03T00:47:31;102385.06;;;7.48;50.10
64841;BME280;51307;52.162;7.560;2023-05-03T00:49:59;102387.81;;;7.46;49.85
64841;BME280;51307;52.162;7.560;2023-05-03T00:52:25;102384.25;;;7.05;50.87
64841;BME280;51307;52.162;7.560;2023-05-03T00:54:51;102381.03;;;6.71;51.57
64841;BME280;51307;52.162;7.560;2023-05-03T00:57:18;102377.03;;;6.79;51.72
64841;BME280;51307;52.162;7.560;2023-05-03T00:59:45;102369.72;;;6.68;51.79
64841;BME280;51307;52.162;7.560;2023-05-03T01:02:10;102379.88;;;6.76;51.41
64841;BME280;51307;52.162;7.560;2023-05-03T01:04:36;102380.47;;;6.66;51.84
64841;BME280;51307;52.162;7.560;2023-05-03T01:09:42;102389.44;;;7.21;50.45
64841;BME280;51307;52.162;7.560;2023-05-03T01:15:14;102386.03;;;6.90;51.22
64841;BME280;51307;52.162;7.560;2023-05-03T01:17:53;102385.38;;;6.87;51.64
64841;BME280;51307;52.162;7.560;2023-05-03T01:20:22;102382.06;;;6.69;51.68
64841;BME280;51307;52.162;7.560;2023-05-03T01:23:10;102383.31;;;6.63;52.08
64841;BME280;51307;52.162;7.560;2023-05-03T01:25:38;102387.28;;;6.56;52.28
64841;BME280;51307;52.162;7.560;2023-05-03T01:28:04;102391.34;;;6.62;52.16
64841;BME280;51307;52.162;7.560;2023-05-03T01:30:31;102383.41;;;6.47;52.72
64841;BME280;51307;52.162;7.560;2023-05-03T01:33:11;102397.25;;;6.67;52.08
64841;BME280;51307;52.162;7.560;2023-05-03T01:38:13;102394.31;;;6.71;51.93
64841;BME280;51307;52.162;7.560;2023-05-03T01:41:01;102396.31;;;6.82;51.62
64841;BME280;51307;52.162;7.560;2023-05-03T01:43:28;102393.66;;;6.68;52.09
64841;BME280;51307;52.162;7.560;2023-05-03T01:45:56;102393.44;;;6.71;51.92
64841;BME280;51307;52.162;7.560;2023-05-03T01:48:25;102401.34;;;6.58;52.15
64841;BME280;51307;52.162;7.560;2023-05-03T01:50:50;102400.13;;;6.64;51.82
64841;BME280;51307;52.162;7.560;2023-05-03T01:53:16;102395.75;;;6.63;51.95
64841;BME280;51307;52.162;7.560;2023-05-03T01:55:41;102392.59;;;6.70;51.82
64841;BME280;51307;52.162;7.560;2023-05-03T01:58:07;102392.50;;;6.57;52.13
64841;BME280;51307;52.162;7.560;2023-05-03T02:00:32;102393.28;;;6.74;51.97
64841;BME280;51307;52.162;7.560;2023-05-03T02:02:58;102393.25;;;6.45;52.26
64841;BME280;51307;52.162;7.560;2023-05-03T02:05:23;102394.78;;;6.49;52.16
64841;BME280;51307;52.162;7.560;2023-05-03T02:07:50;102389.09;;;6.55;51.81
64841;BME280;51307;52.162;7.560;2023-05-03T02:10:16;102394.53;;;6.54;51.81
64841;BME280;51307;52.162;7.560;2023-05-03T02:12:44;102401.03;;;6.48;52.18
64841;BME280;51307;52.162;7.560;2023-05-03T02:15:11;102410.63;;;6.51;52.45
64841;BME280;51307;52.162;7.560;2023-05-03T02:17:37;102417.78;;;6.50;52.24
64841;BME280;51307;52.162;7.560;2023-05-03T02:20:03;102402.28;;;6.43;52.42
64841;BME280;51307;52.162;7.560;2023-05-03T02:22:35;102412.72;;;6.31;52.72
64841;BME280;51307;52.162;7.560;2023-05-03T02:25:01;102410.22;;;6.14;52.75
64841;BME280;51307;52.162;7.560;2023-05-03T02:27:26;102400.97;;;6.05;53.02
64841;BME280;51307;52.162;7.560;2023-05-03T02:29:52;102415.44;;;6.15;52.72
64841;BME280;51307;52.162;7.560;2023-05-03T02:32:18;102417.81;;;6.20;52.50
64841;BME280;51307;52.162;7.560;2023-05-03T02:34:47;102427.56;;;6.05;52.69
64841;BME280;51307;52.162;7.560;2023-05-03T02:37:12;102414.59;;;6.15;52.47
64841;BME280;51307;52.162;7.560;2023-05-03T02:39:38;102430.72;;;6.12;52.81
64841;BME280;51307;52.162;7.560;2023-05-03T02:42:03;102428.59;;;6.02;52.94
64841;BME280;51307;52.162;7.560;2023-05-03T02:44:29;102427.91;;;6.15;52.56
64841;BME280;51307;52.162;7.560;2023-05-03T02:46:55;102431.03;;;6.21;52.36
64841;BME280;51307;52.162;7.560;2023-05-03T02:49:20;102439.84;;;5.92;53.13
64841;BME280;51307;52.162;7.560;2023-05-03T02:51:46;102441.06;;;5.86;53.26
64841;BME280;51307;52.162;7.560;2023-05-03T02:54:11;102435.94;;;5.83;53.59
64841;BME280;51307;52.162;7.560;2023-05-03T02:56:37;102431.97;;;5.90;53.19
64841;BME280;51307;52.162;7.560;2023-05-03T02:59:03;102431.09;;;6.05;52.85
64841;BME280;51307;52.162;7.560;2023-05-03T03:01:28;102420.06;;;6.12;52.61
64841;BME280;51307;52.162;7.560;2023-05-03T03:03:54;102425.00;;;6.03;52.77
64841;BME280;51307;52.162;7.560;2023-05-03T03:06:20;102409.84;;;6.05;52.55
64841;BME280;51307;52.162;7.560;2023-05-03T03:08:46;102404.91;;;6.14;52.54
64841;BME280;51307;52.162;7.560;2023-05-03T03:11:11;102402.69;;;6.06;52.75
64841;BME280;51307;52.162;7.560;2023-05-03T03:13:37;102406.41;;;6.03;52.55
64841;BME280;51307;52.162;7.560;2023-05-03T03:16:08;102398.22;;;6.06;52.65
64841;BME280;51307;52.162;7.560;2023-05-03T03:18:34;102397.44;;;5.90;52.90
64841;BME280;51307;52.162;7.560;2023-05-03T03:21:00;102394.94;;;6.03;52.65
64841;BME280;51307;52.162;7.560;2023-05-03T03:23:26;102398.56;;;5.86;53.06
64841;BME280;51307;52.162;7.560;2023-05-03T03:25:51;102398.13;;;5.94;52.86
64841;BME280;51307;52.162;7.560;2023-05-03T03:28:17;102394.53;;;5.95;52.54
64841;BME280;51307;52.162;7.560;2023-05-03T03:30:43;102397.22;;;5.79;52.79
64841;BME280;51307;52.162;7.560;2023-05-03T03:33:09;102397.88;;;5.82;52.99
64841;BME280;51307;52.162;7.560;2023-05-03T03:35:36;102392.34;;;5.71;52.92
64841;BME280;51307;52.162;7.560;2023-05-03T03:38:02;102386.59;;;5.79;52.80
64841;BME280;51307;52.162;7.560;2023-05-03T03:40:28;102389.84;;;5.84;52.77
64841;BME280;51307;52.162;7.560;2023-05-03T03:42:53;102390.19;;;5.78;52.93
64841;BME280;51307;52.162;7.560;2023-05-03T03:45:19;102396.00;;;5.84;52.66
64841;BME280;51307;52.162;7.560;2023-05-03T03:47:44;102399.19;;;5.75;52.67
64841;BME280;51307;52.162;7.560;2023-05-03T03:50:10;102393.97;;;5.73;52.74
64841;BME280;51307;52.162;7.560;2023-05-03T03:52:35;102391.59;;;5.69;52.83
64841;BME280;51307;52.162;7.560;2023-05-03T03:55:01;102396.03;;;5.68;52.81
64841;BME280;51307;52.162;7.560;2023-05-03T03:57:26;102389.69;;;5.71;52.72
64841;BME280;51307;52.162;7.560;2023-05-03T03:59:55;102393.28;;;5.70;52.71
64841;BME280;51307;52.162;7.560;2023-05-03T04:02:21;102395.84;;;5.71;52.69
64841;BME280;51307;52.162;7.560;2023-05-03T04:04:46;102398.94;;;5.80;52.89
64841;BME280;51307;52.162;7.560;2023-05-03T04:07:12;102392.09;;;5.76;52.60
64841;BME280;51307;52.162;7.560;2023-05-03T04:09:37;102394.16;;;5.70;52.81
64841;BME280;51307;52.162;7.560;2023-05-03T04:12:03;102383.63;;;5.69;52.82
64841;BME280;51307;52.162;7.560;2023-05-03T04:14:28;102383.69;;;5.67;52.76
64841;BME280;51307;52.162;7.560;2023-05-03T04:16:54;102382.53;;;5.57;53.12
64841;BME280;51307;52.162;7.560;2023-05-03T04:19:20;102376.94;;;5.62;53.02
64841;BME280;51307;52.162;7.560;2023-05-03T04:21:46;102379.81;;;5.43;53.67
64841;BME280;51307;52.162;7.560;2023-05-03T04:24:16;102372.88;;;5.40;54.01
64841;BME280;51307;52.162;7.560;2023-05-03T04:26:42;102370.91;;;5.44;53.92
64841;BME280;51307;52.162;7.560;2023-05-03T04:29:08;102377.44;;;5.38;54.09
64841;BME280;51307;52.162;7.560;2023-05-03T04:31:35;102379.81;;;5.43;54.07
64841;BME280;51307;52.162;7.560;2023-05-03T04:34:00;102381.44;;;5.29;54.36
64841;BME280;51307;52.162;7.560;2023-05-03T04:36:26;102391.13;;;5.30;54.47
64841;BME280;51307;52.162;7.560;2023-05-03T04:38:54;102395.22;;;5.20;54.76
64841;BME280;51307;52.162;7.560;2023-05-03T04:41:20;102396.25;;;5.33;54.50
64841;BME280;51307;52.162;7.560;2023-05-03T04:43:45;102401.84;;;5.45;54.66
64841;BME280;51307;52.162;7.560;2023-05-03T04:46:11;102407.66;;;5.35;54.67
64841;BME280;51307;52.162;7.560;2023-05-03T04:48:36;102400.22;;;5.42;54.62
64841;BME280;51307;52.162;7.560;2023-05-03T04:51:02;102404.81;;;5.54;54.24
64841;BME280;51307;52.162;7.560;2023-05-03T04:53:28;102406.44;;;5.57;53.93
64841;BME280;51307;52.162;7.560;2023-05-03T04:55:53;102418.00;;;5.56;54.23
64841;BME280;51307;52.162;7.560;2023-05-03T04:58:19;102413.88;;;5.66;53.88
64841;BME280;51307;52.162;7.560;2023-05-03T05:00:44;102418.19;;;5.53;54.30
64841;BME280;51307;52.162;7.560;2023-05-03T05:03:10;102431.38;;;5.54;53.82
64841;BME280;51307;52.162;7.560;2023-05-03T05:05:36;102421.91;;;5.65;53.91
64841;BME280;51307;52.162;7.560;2023-05-03T05:08:01;102427.28;;;5.79;54.03
64841;BME280;51307;52.162;7.560;2023-05-03T05:10:27;102433.88;;;5.88;54.51
64841;BME280;51307;52.162;7.560;2023-05-03T05:12:52;102427.78;;;5.86;54.55
64841;BME280;51307;52.162;7.560;2023-05-03T05:15:18;102432.22;;;6.01;54.19
64841;BME280;51307;52.162;7.560;2023-05-03T05:17:44;102439.81;;;6.07;53.94
64841;BME280;51307;52.162;7.560;2023-05-03T05:20:10;102441.97;;;6.01;53.59
64841;BME280;51307;52.162;7.560;2023-05-03T05:22:40;102451.16;;;5.95;54.19
64841;BME280;51307;52.162;7.560;2023-05-03T05:25:06;102450.63;;;6.04;54.47
64841;BME280;51307;52.162;7.560;2023-05-03T05:27:33;102452.88;;;5.96;54.95
64841;BME280;51307;52.162;7.560;2023-05-03T05:29:59;102449.81;;;6.18;54.54
64841;BME280;51307;52.162;7.560;2023-05-03T05:32:25;102454.97;;;6.21;54.58
64841;BME280;51307;52.162;7.560;2023-05-03T05:34:51;102460.78;;;6.28;54.22
64841;BME280;51307;52.162;7.560;2023-05-03T05:37:21;102454.16;;;6.50;54.12
64841;BME280;51307;52.162;7.560;2023-05-03T05:39:49;102465.13;;;6.29;53.98
64841;BME280;51307;52.162;7.560;2023-05-03T05:42:15;102474.72;;;6.32;54.44
64841;BME280;51307;52.162;7.560;2023-05-03T05:44:40;102464.59;;;6.53;53.73
64841;BME280;51307;52.162;7.560;2023-05-03T05:47:08;102465.75;;;6.49;53.53
64841;BME280;51307;52.162;7.560;2023-05-03T05:49:34;102463.94;;;6.64;53.52
64841;BME280;51307;52.162;7.560;2023-05-03T05:51:59;102458.81;;;6.75;53.35
64841;BME280;51307;52.162;7.560;2023-05-03T05:54:25;102465.19;;;6.87;53.16
64841;BME280;51307;52.162;7.560;2023-05-03T05:56:51;102457.78;;;6.78;53.15
64841;BME280;51307;52.162;7.560;2023-05-03T05:59:16;102463.72;;;7.12;51.85
64841;BME280;51307;52.162;7.560;2023-05-03T06:01:42;102466.53;;;6.94;52.09
64841;BME280;51307;52.162;7.560;2023-05-03T06:04:11;102466.84;;;7.04;52.15
64841;BME280;51307;52.162;7.560;2023-05-03T06:06:37;102476.72;;;7.16;51.86
64841;BME280;51307;52.162;7.560;2023-05-03T06:09:03;102481.72;;;7.35;51.77
64841;BME280;51307;52.162;7.560;2023-05-03T06:11:28;102482.13;;;7.29;51.18
64841;BME280;51307;52.162;7.560;2023-05-03T06:13:54;102481.72;;;7.50;50.97
64841;BME280;51307;52.162;7.560;2023-05-03T06:16:22;102475.69;;;7.61;51.11
64841;BME280;51307;52.162;7.560;2023-05-03T06:18:47;102488.09;;;7.33;51.71
64841;BME280;51307;52.162;7.560;2023-05-03T06:21:13;102487.94;;;7.63;51.51
64841;BME280;51307;52.162;7.560;2023-05-03T06:23:38;102479.25;;;7.47;51.91
64841;BME280;51307;52.162;7.560;2023-05-03T06:26:04;102484.53;;;7.88;50.50
64841;BME280;51307;52.162;7.560;2023-05-03T06:28:29;102480.91;;;7.89;50.10
64841;BME280;51307;52.162;7.560;2023-05-03T06:30:55;102487.72;;;7.81;50.53
64841;BME280;51307;52.162;7.560;2023-05-03T06:33:20;102477.88;;;7.81;50.86
64841;BME280;51307;52.162;7.560;2023-05-03T06:35:46;102478.69;;;7.96;51.02
64841;BME280;51307;52.162;7.560;2023-05-03T06:38:11;102488.00;;;8.03;51.21
64841;BME280;51307;52.162;7.560;2023-05-03T06:40:37;102490.13;;;7.98;50.67
64841;BME280;51307;52.162;7.560;2023-05-03T06:43:02;102484.63;;;8.27;49.87
64841;BME280;51307;52.162;7.560;2023-05-03T06:45:28;102479.75;;;8.47;50.39
64841;BME280;51307;52.162;7.560;2023-05-03T06:47:53;102478.59;;;8.51;49.01
64841;BME280;51307;52.162;7.560;2023-05-03T06:50:19;102480.41;;;8.63;48.43
64841;BME280;51307;52.162;7.560;2023-05-03T06:52:46;102478.88;;;8.46;48.29
64841;BME280;51307;52.162;7.560;2023-05-03T06:55:12;102484.47;;;8.56;48.59
64841;BME280;51307;52.162;7.560;2023-05-03T06:57:39;102481.59;;;8.59;47.44
64841;BME280;51307;52.162;7.560;2023-05-03T07:00:05;102486.59;;;8.76;47.21
64841;BME280;51307;52.162;7.560;2023-05-03T07:02:32;102480.19;;;8.79;47.82
64841;BME280;51307;52.162;7.560;2023-05-03T07:04:57;102485.41;;;8.81;47.73
64841;BME280;51307;52.162;7.560;2023-05-03T07:07:23;102475.50;;;8.83;47.20
64841;BME280;51307;52.162;7.560;2023-05-03T07:09:48;102475.59;;;8.68;46.48
64841;BME280;51307;52.162;7.560;2023-05-03T07:12:14;102483.09;;;8.89;45.98
64841;BME280;51307;52.162;7.560;2023-05-03T07:14:41;102478.28;;;8.94;45.53
64841;BME280;51307;52.162;7.560;2023-05-03T07:17:07;102483.63;;;8.94;45.51
64841;BME280;51307;52.162;7.560;2023-05-03T07:19:33;102477.44;;;8.94;45.01
64841;BME280;51307;52.162;7.560;2023-05-03T07:21:58;102477.88;;;9.00;45.11
64841;BME280;51307;52.162;7.560;2023-05-03T07:24:24;102471.47;;;8.90;43.23
64841;BME280;51307;52.162;7.560;2023-05-03T07:26:51;102459.94;;;8.89;44.01
64841;BME280;51307;52.162;7.560;2023-05-03T07:29:16;102461.84;;;9.00;43.23
64841;BME280;51307;52.162;7.560;2023-05-03T07:31:42;102461.41;;;9.06;43.91
64841;BME280;51307;52.162;7.560;2023-05-03T07:34:09;102456.81;;;9.08;44.18
64841;BME280;51307;52.162;7.560;2023-05-03T07:36:35;102453.69;;;9.15;45.02
64841;BME280;51307;52.162;7.560;2023-05-03T07:39:01;102453.16;;;9.22;43.28
64841;BME280;51307;52.162;7.560;2023-05-03T07:41:26;102454.09;;;9.21;43.99
64841;BME280;51307;52.162;7.560;2023-05-03T07:43:52;102452.59;;;9.30;43.32
64841;BME280;51307;52.162;7.560;2023-05-03T07:46:17;102449.06;;;9.30;43.83
64841;BME280;51307;52.162;7.560;2023-05-03T07:48:43;102452.47;;;9.32;42.70
64841;BME280;51307;52.162;7.560;2023-05-03T07:51:08;102444.09;;;9.49;43.55
64841;BME280;51307;52.162;7.560;2023-05-03T07:53:34;102438.22;;;9.44;43.19
64841;BME280;51307;52.162;7.560;2023-05-03T07:56:00;102435.22;;;9.49;43.34
64841;BME280;51307;52.162;7.560;2023-05-03T07:58:25;102438.38;;;9.54;43.68
64841;BME280;51307;52.162;7.560;2023-05-03T08:00:51;102434.75;;;9.55;43.39
64841;BME280;51307;52.162;7.560;2023-05-03T08:03:17;102438.34;;;9.67;42.85
64841;BME280;51307;52.162;7.560;2023-05-03T08:05:42;102430.97;;;9.70;42.43
64841;BME280;51307;52.162;7.560;2023-05-03T08:08:08;102434.72;;;9.68;43.08
64841;BME280;51307;52.162;7.560;2023-05-03T08:10:34;102435.72;;;9.78;43.10
64841;BME280;51307;52.162;7.560;2023-05-03T08:13:03;102432.94;;;9.80;43.26
64841;BME280;51307;52.162;7.560;2023-05-03T08:15:30;102435.09;;;9.74;43.11
64841;BME280;51307;52.162;7.560;2023-05-03T08:17:55;102436.69;;;9.77;43.24
64841;BME280;51307;52.162;7.560;2023-05-03T08:20:22;102431.41;;;9.64;43.12
64841;BME280;51307;52.162;7.560;2023-05-03T08:22:47;102432.84;;;9.92;43.33
64841;BME280;51307;52.162;7.560;2023-05-03T08:25:13;102432.34;;;9.87;41.58
64841;BME280;51307;52.162;7.560;2023-05-03T08:27:41;102443.44;;;9.94;41.14
64841;BME280;51307;52.162;7.560;2023-05-03T08:30:07;102440.56;;;9.97;41.27
64841;BME280;51307;52.162;7.560;2023-05-03T08:32:33;102439.94;;;9.69;41.66
64841;BME280;51307;52.162;7.560;2023-05-03T08:34:59;102442.97;;;10.00;41.71
64841;BME280;51307;52.162;7.560;2023-05-03T08:37:24;102435.16;;;9.86;40.38
64841;BME280;51307;52.162;7.560;2023-05-03T08:39:50;102449.28;;;9.99;40.73
64841;BME280;51307;52.162;7.560;2023-05-03T08:42:16;102456.13;;;10.03;40.74
64841;BME280;51307;52.162;7.560;2023-05-03T08:44:46;102451.53;;;10.05;42.12
64841;BME280;51307;52.162;7.560;2023-05-03T08:47:14;102456.63;;;10.08;41.09
64841;BME280;51307;52.162;7.560;2023-05-03T08:49:43;102459.31;;;10.08;41.34
64841;BME280;51307;52.162;7.560;2023-05-03T08:52:10;102453.25;;;10.18;41.12
64841;BME280;51307;52.162;7.560;2023-05-03T08:54:37;102435.97;;;10.10;41.06
64841;BME280;51307;52.162;7.560;2023-05-03T08:57:03;102445.16;;;10.31;42.01
64841;BME280;51307;52.162;7.560;2023-05-03T08:59:28;102434.53;;;10.29;41.58
64841;BME280;51307;52.162;7.560;2023-05-03T09:01:54;102432.38;;;10.34;41.29
64841;BME280;51307;52.162;7.560;2023-05-03T09:04:31;102431.22;;;10.14;40.62
64841;BME280;51307;52.162;7.560;2023-05-03T09:07:08;102419.75;;;10.36;41.93
64841;BME280;51307;52.162;7.560;2023-05-03T09:09:34;102422.00;;;10.18;40.91
64841;BME280;51307;52.162;7.560;2023-05-03T09:12:01;102413.75;;;10.33;41.21
64841;BME280;51307;52.162;7.560;2023-05-03T09:14:26;102412.09;;;10.43;41.15
64841;BME280;51307;52.162;7.560;2023-05-03T09:16:51;102419.91;;;10.46;41.51
64841;BME280;51307;52.162;7.560;2023-05-03T09:19:17;102417.44;;;10.43;40.79
64841;BME280;51307;52.162;7.560;2023-05-03T09:21:44;102413.91;;;10.42;40.55
64841;BME280;51307;52.162;7.560;2023-05-03T09:24:15;102415.16;;;10.50;41.86
64841;BME280;51307;52.162;7.560;2023-05-03T09:26:42;102415.38;;;10.47;41.03
64841;BME280;51307;52.162;7.560;2023-05-03T09:29:08;102413.69;;;10.57;41.12
64841;BME280;51307;52.162;7.560;2023-05-03T09:31:35;102406.03;;;10.64;40.55
64841;BME280;51307;52.162;7.560;2023-05-03T09:34:01;102405.94;;;10.76;41.05
64841;BME280;51307;52.162;7.560;2023-05-03T09:36:46;102399.84;;;10.74;40.77
64841;BME280;51307;52.162;7.560;2023-05-03T09:39:18;102394.47;;;10.86;42.37
64841;BME280;51307;52.162;7.560;2023-05-03T09:41:44;102404.22;;;10.87;40.93
64841;BME280;51307;52.162;7.560;2023-05-03T09:44:10;102397.13;;;10.86;40.25
64841;BME280;51307;52.162;7.560;2023-05-03T09:46:37;102397.88;;;10.88;40.94
64841;BME280;51307;52.162;7.560;2023-05-03T09:49:03;102398.84;;;10.87;40.92
64841;BME280;51307;52.162;7.560;2023-05-03T09:51:30;102401.66;;;10.97;41.10
64841;BME280;51307;52.162;7.560;2023-05-03T09:53:58;102407.84;;;10.86;41.29
64841;BME280;51307;52.162;7.560;2023-05-03T09:56:24;102398.84;;;10.98;39.85
64841;BME280;51307;52.162;7.560;2023-05-03T09:58:53;102399.97;;;10.73;39.84
64841;BME280;51307;52.162;7.560;2023-05-03T10:01:19;102397.63;;;10.91;40.23
64841;BME280;51307;52.162;7.560;2023-05-03T10:03:50;102390.47;;;10.91;39.75
64841;BME280;51307;52.162;7.560;2023-05-03T10:06:24;102388.00;;;11.00;41.02
64841;BME280;51307;52.162;7.560;2023-05-03T10:09:00;102384.06;;;11.15;41.20
64841;BME280;51307;52.162;7.560;2023-05-03T10:11:28;102377.72;;;11.27;41.21
64841;BME280;51307;52.162;7.560;2023-05-03T10:13:54;102381.38;;;11.26;41.12
64841;BME280;51307;52.162;7.560;2023-05-03T10:16:27;102375.75;;;11.30;40.35
64841;BME280;51307;52.162;7.560;2023-05-03T10:19:12;102371.50;;;11.27;39.02
64841;BME280;51307;52.162;7.560;2023-05-03T10:24:29;102371.56;;;11.48;39.73
64841;BME280;51307;52.162;7.560;2023-05-03T10:26:56;102373.97;;;11.51;40.56
64841;BME280;51307;52.162;7.560;2023-05-03T10:32:28;102374.31;;;11.58;39.69
64841;BME280;51307;52.162;7.560;2023-05-03T10:37:31;102364.78;;;11.65;39.32
64841;BME280;51307;52.162;7.560;2023-05-03T10:40:06;102357.75;;;11.64;39.87
64841;BME280;51307;52.162;7.560;2023-05-03T10:42:32;102350.53;;;11.65;39.30
64841;BME280;51307;52.162;7.560;2023-05-03T10:44:59;102359.75;;;11.72;39.78
64841;BME280;51307;52.162;7.560;2023-05-03T10:47:25;102362.69;;;11.69;40.44
64841;BME280;51307;52.162;7.560;2023-05-03T10:55:10;102355.53;;;11.90;40.06
64841;BME280;51307;52.162;7.560;2023-05-03T10:57:38;102356.28;;;11.81;38.90
64841;BME280;51307;52.162;7.560;2023-05-03T11:00:12;102354.38;;;12.04;39.78
64841;BME280;51307;52.162;7.560;2023-05-03T11:05:27;102349.13;;;12.03;39.88
64841;BME280;51307;52.162;7.560;2023-05-03T11:08:16;102344.63;;;12.03;39.87
64841;BME280;51307;52.162;7.560;2023-05-03T11:10:47;102348.59;;;12.09;39.83
64841;BME280;51307;52.162;7.560;2023-05-03T11:13:13;102344.16;;;12.19;39.89
64841;BME280;51307;52.162;7.560;2023-05-03T11:15:40;102343.03;;;12.22;39.03
64841;BME280;51307;52.162;7.560;2023-05-03T11:18:07;102343.97;;;12.11;38.31
64841;BME280;51307;52.162;7.560;2023-05-03T11:20:34;102338.00;;;12.07;38.55
64841;BME280;51307;52.162;7.560;2023-05-03T11:23:01;102334.34;;;12.08;38.38
64841;BME280;51307;52.162;7.560;2023-05-03T11:25:27;102332.88;;;12.25;38.76
64841;BME280;51307;52.162;7.560;2023-05-03T11:27:53;102337.53;;;12.23;38.44
64841;BME280;51307;52.162;7.560;2023-05-03T11:30:18;102336.53;;;12.24;38.38
64841;BME280;51307;52.162;7.560;2023-05-03T11:32:44;102325.13;;;12.32;39.35
64841;BME280;51307;52.162;7.560;2023-05-03T11:35:13;102333.63;;;12.37;39.93
64841;BME280;51307;52.162;7.560;2023-05-03T11:37:41;102327.47;;;12.47;39.62
64841;BME280;51307;52.162;7.560;2023-05-03T11:40:14;102338.81;;;12.60;38.82
64841;BME280;51307;52.162;7.560;2023-05-03T11:45:15;102331.75;;;12.59;40.09
64841;BME280;51307;52.162;7.560;2023-05-03T11:47:41;102334.88;;;12.64;40.18
64841;BME280;51307;52.162;7.560;2023-05-03T11:50:06;102327.69;;;12.74;39.50
64841;BME280;51307;52.162;7.560;2023-05-03T11:52:35;102334.06;;;12.73;38.91
64841;BME280;51307;52.162;7.560;2023-05-03T11:55:01;102339.13;;;12.76;38.35
64841;BME280;51307;52.162;7.560;2023-05-03T11:57:30;102331.00;;;12.88;38.70
64841;BME280;51307;52.162;7.560;2023-05-03T12:00:09;102329.84;;;12.90;39.08
64841;BME280;51307;52.162;7.560;2023-05-03T12:02:35;102333.00;;;13.05;38.65
64841;BME280;51307;52.162;7.560;2023-05-03T12:05:01;102328.72;;;12.93;37.87
64841;BME280;51307;52.162;7.560;2023-05-03T12:07:27;102320.09;;;12.99;38.47
64841;BME280;51307;52.162;7.560;2023-05-03T12:09:52;102318.56;;;13.06;39.44
64841;BME280;51307;52.162;7.560;2023-05-03T12:12:18;102321.69;;;13.11;37.91
64841;BME280;51307;52.162;7.560;2023-05-03T12:14:57;102310.78;;;13.03;39.04
64841;BME280;51307;52.162;7.560;2023-05-03T12:17:39;102317.84;;;13.04;39.04
64841;BME280;51307;52.162;7.560;2023-05-03T12:20:14;102313.78;;;13.20;39.32
64841;BME280;51307;52.162;7.560;2023-05-03T12:22:41;102301.06;;;13.32;38.60
64841;BME280;51307;52.162;7.560;2023-05-03T12:25:06;102303.00;;;13.10;36.43
64841;BME280;51307;52.162;7.560;2023-05-03T12:27:32;102304.19;;;13.27;38.49
64841;BME280;51307;52.162;7.560;2023-05-03T12:29:58;102308.97;;;13.33;37.75
64841;BME280;51307;52.162;7.560;2023-05-03T12:32:23;102310.13;;;13.40;36.90
64841;BME280;51307;52.162;7.560;2023-05-03T12:34:49;102309.28;;;13.40;37.17
64841;BME280;51307;52.162;7.560;2023-05-03T12:37:15;102306.16;;;13.44;36.30
64841;BME280;51307;52.162;7.560;2023-05-03T12:39:40;102306.16;;;13.44;36.49
64841;BME280;51307;52.162;7.560;2023-05-03T12:42:07;102298.09;;;13.44;35.84
64841;BME280;51307;52.162;7.560;2023-05-03T12:44:32;102291.59;;;13.47;34.55
64841;BME280;51307;52.162;7.560;2023-05-03T12:46:58;102287.34;;;13.44;37.06
64841;BME280;51307;52.162;7.560;2023-05-03T12:49:23;102284.94;;;13.51;37.79
64841;BME280;51307;52.162;7.560;2023-05-03T12:51:49;102264.69;;;13.57;37.86
64841;BME280;51307;52.162;7.560;2023-05-03T12:54:14;102264.66;;;13.67;37.32
64841;BME280;51307;52.162;7.560;2023-05-03T12:56:41;102268.78;;;13.41;35.98
64841;BME280;51307;52.162;7.560;2023-05-03T12:59:07;102265.66;;;13.66;37.15
64841;BME280;51307;52.162;7.560;2023-05-03T13:01:32;102258.56;;;13.74;37.31
64841;BME280;51307;52.162;7.560;2023-05-03T13:03:58;102262.66;;;13.78;36.92
64841;BME280;51307;52.162;7.560;2023-05-03T13:06:24;102257.16;;;13.70;35.69
64841;BME280;51307;52.162;7.560;2023-05-03T13:08:49;102253.44;;;13.81;36.39
64841;BME280;51307;52.162;7.560;2023-05-03T13:11:15;102248.75;;;13.83;36.21
64841;BME280;51307;52.162;7.560;2023-05-03T13:13:43;102244.34;;;13.92;35.23
64841;BME280;51307;52.162;7.560;2023-05-03T13:16:08;102240.22;;;13.98;36.04
64841;BME280;51307;52.162;7.560;2023-05-03T13:18:34;102234.84;;;13.98;34.88
64841;BME280;51307;52.162;7.560;2023-05-03T13:20:59;102238.09;;;14.01;36.08
64841;BME280;51307;52.162;7.560;2023-05-03T13:23:25;102236.78;;;14.05;36.55
64841;BME280;51307;52.162;7.560;2023-05-03T13:25:51;102229.38;;;14.17;36.11